Ohshima Kazumaru — JD2908 — position and weather

sailwx.info

Track history (hours):
 
Tides and Currents Weather Stations Pressure Air Temp Water Temp Dewpoint Dewpoint Depression Visibility Wind Speed Wind Dir Waves Ship Positions

Ohshima Kazumaru

Last reported at 2016-Jun-24 07:32 UTC. Time now 2016-Jun-26 13:52 UTC.
Position N 35°01' E 139°30'.

Length 69 m; draft 4 m.

Type: Cargo ship. MMSI: 431000925.

Date/timePositionNaut miles runAvg speedWind from/ knotsBaromVisibWave heightAir tempDewpointWater temp
2016-Jun-24 07:32N 35°01' E 139°30'3010.1
2016-Jun-24 04:33N 35°27' E 139°48'1212.3
2016-Jun-24 03:33N 35°37' E 139°58'4 2.9
2016-Jun-24 02:06N 35°41' E 139°58'0 0.0
2016-Jun-24 01:33N 35°41' E 139°58'0 0.0
2016-Jun-24 00:33N 35°41' E 139°58'0 0.0
2016-Jun-23 23:33N 35°41' E 139°58'0 0.0
2016-Jun-23 22:33N 35°41' E 139°58'0 0.0
2016-Jun-23 21:33N 35°41' E 139°58'0 0.0
2016-Jun-23 20:33N 35°41' E 139°58'0 0.0
2016-Jun-23 19:33N 35°41' E 139°58'0 0.0
2016-Jun-23 18:33N 35°41' E 139°58'0 0.0
2016-Jun-23 17:33N 35°41' E 139°58'0 0.0
2016-Jun-23 16:33N 35°41' E 139°58'0 0.0
2016-Jun-23 15:32N 35°41' E 139°58'0 0.0
2016-Jun-23 14:33N 35°41' E 139°58'0 0.0
2016-Jun-23 13:33N 35°41' E 139°58'0 0.0
2016-Jun-23 12:34N 35°41' E 139°58'0 0.0
2016-Jun-23 11:33N 35°41' E 139°58'0 0.0
2016-Jun-23 10:33N 35°41' E 139°58'0 0.0
2016-Jun-23 09:33N 35°41' E 139°58'0 0.0
2016-Jun-23 08:33N 35°41' E 139°58'0 0.0
2016-Jun-23 07:33N 35°41' E 139°58'0 0.0
2016-Jun-23 05:33N 35°41' E 139°58'0 0.0
2016-Jun-23 04:33N 35°41' E 139°58'0 0.0
2016-Jun-23 03:33N 35°41' E 139°58'0 0.0
2016-Jun-23 02:33N 35°41' E 139°58'0 0.0
2016-Jun-23 01:33N 35°41' E 139°58'0 0.0
2016-Jun-23 00:33N 35°41' E 139°58'0 0.0
2016-Jun-22 23:33N 35°41' E 139°58'0 0.0
2016-Jun-22 22:33N 35°41' E 139°58'0 0.0
2016-Jun-22 21:33N 35°41' E 139°58'0 0.0
2016-Jun-22 20:33N 35°41' E 139°58'0 0.0
2016-Jun-22 19:33N 35°41' E 139°58'0 0.0
2016-Jun-22 18:33N 35°41' E 139°58'0 0.0
2016-Jun-22 17:33N 35°41' E 139°58'0 0.0
2016-Jun-22 16:34N 35°41' E 139°58'0 0.0
2016-Jun-22 15:33N 35°41' E 139°58'0 0.0
2016-Jun-22 14:33N 35°41' E 139°58'0 0.0
2016-Jun-22 13:33N 35°41' E 139°58'0 0.0
2016-Jun-22 12:33N 35°41' E 139°58'0 0.0
2016-Jun-22 11:33N 35°41' E 139°58'0 0.0
2016-Jun-22 10:33N 35°41' E 139°58'0 0.0
2016-Jun-22 09:33N 35°41' E 139°58'0 0.0
2016-Jun-22 08:33N 35°41' E 139°58'0 0.0
2016-Jun-22 07:33N 35°41' E 139°58'0 0.0
2016-Jun-22 06:33N 35°41' E 139°58'0 0.0
2016-Jun-22 05:33N 35°41' E 139°58'0 0.0
2016-Jun-22 04:33N 35°41' E 139°58'0 0.0
2016-Jun-22 03:33N 35°41' E 139°58'0 0.0
2016-Jun-22 02:32N 35°41' E 139°58'0 0.0
2016-Jun-22 01:33N 35°41' E 139°58'0 0.0
2016-Jun-22 00:33N 35°41' E 139°58'0 0.0
2016-Jun-21 23:33N 35°41' E 139°58'0 0.0
2016-Jun-21 22:33N 35°41' E 139°58'0 0.2
2016-Jun-21 21:33N 35°41' E 139°59'4 4.0
2016-Jun-21 20:33N 35°37' E 139°58'0 0.0
2016-Jun-21 19:33N 35°37' E 139°58'6 5.9
2016-Jun-21 18:33N 35°32' E 139°55'1212.0
2016-Jun-21 17:33N 35°22' E 139°45'1111.2
2016-Jun-21 16:33N 35°11' E 139°47'1110.7
2016-Jun-21 15:32N 35°02' E 139°40'1211.8
2016-Jun-21 14:33N 34°56' E 139°28'  
2016-Jun-16 08:29N 35°00' E 139°29'1212.1
2016-Jun-16 07:28N 35°07' E 139°42'1010.7
2016-Jun-16 06:31N 35°17' E 139°45'1010.1
2016-Jun-16 05:33N 35°26' E 139°45'5 5.3
2016-Jun-16 04:33N 35°32' E 139°47'0 0.0
2016-Jun-16 03:33N 35°32' E 139°47'0 0.0
2016-Jun-16 02:33N 35°32' E 139°47'0 0.0
2016-Jun-16 01:33N 35°32' E 139°47'0 0.0
2016-Jun-16 00:33N 35°32' E 139°47'0 0.0
2016-Jun-15 23:33N 35°32' E 139°47'0 0.0
2016-Jun-15 22:33N 35°32' E 139°47'0 0.0
2016-Jun-15 21:33N 35°32' E 139°47'0 0.0
2016-Jun-15 20:33N 35°32' E 139°47'0 0.0
2016-Jun-15 19:33N 35°32' E 139°47'0 0.0
2016-Jun-15 18:33N 35°32' E 139°47'0 0.0
2016-Jun-15 17:33N 35°32' E 139°47'0 0.0
2016-Jun-15 16:33N 35°32' E 139°47'0 0.0
2016-Jun-15 15:33N 35°32' E 139°47'0 0.0
2016-Jun-15 14:33N 35°32' E 139°47'0 0.0
2016-Jun-15 13:33N 35°32' E 139°47'0 0.0
2016-Jun-15 12:33N 35°32' E 139°47'0 0.0
2016-Jun-15 11:33N 35°32' E 139°47'0 0.0
2016-Jun-15 10:33N 35°32' E 139°47'0 0.0
2016-Jun-15 09:33N 35°32' E 139°47'0 0.0
2016-Jun-15 08:33N 35°32' E 139°47'0 0.0
2016-Jun-15 07:33N 35°32' E 139°47'0 0.0
2016-Jun-15 06:33N 35°32' E 139°47'0 0.0
2016-Jun-15 05:33N 35°32' E 139°47'0 0.0
2016-Jun-15 04:33N 35°32' E 139°47'1 1.2
2016-Jun-15 03:33N 35°31' E 139°48'1 1.0
2016-Jun-15 02:33N 35°31' E 139°50'0 0.0
2016-Jun-15 01:33N 35°31' E 139°50'0 0.0
2016-Jun-15 00:33N 35°31' E 139°50'3 2.5
2016-Jun-14 23:34N 35°28' E 139°48'1111.0
2016-Jun-14 22:34N 35°17' E 139°45'1010.4
2016-Jun-14 21:33N 35°07' E 139°45'  
Track history (hours):
 
Tides and Currents Weather Stations Pressure Air Temp Water Temp Dewpoint Dewpoint Depression Visibility Wind Speed Wind Dir Waves Ship Positions

Ohshima Kazumaru

Last reported at 2016-Jun-24 07:32 UTC. Time now 2016-Jun-26 13:52 UTC.
Position N 35°01' E 139°30'.

Length 69 m; draft 4 m.

Type: Cargo ship. MMSI: 431000925.

Date/timePositionNaut miles runAvg speedWind from/ knotsBaromVisibWave heightAir tempDewpointWater temp
2016-Jun-24 07:32N 35°01' E 139°30'3010.1
2016-Jun-24 04:33N 35°27' E 139°48'1212.3
2016-Jun-24 03:33N 35°37' E 139°58'4 2.9
2016-Jun-24 02:06N 35°41' E 139°58'0 0.0
2016-Jun-24 01:33N 35°41' E 139°58'0 0.0
2016-Jun-24 00:33N 35°41' E 139°58'0 0.0
2016-Jun-23 23:33N 35°41' E 139°58'0 0.0
2016-Jun-23 22:33N 35°41' E 139°58'0 0.0
2016-Jun-23 21:33N 35°41' E 139°58'0 0.0
2016-Jun-23 20:33N 35°41' E 139°58'0 0.0
2016-Jun-23 19:33N 35°41' E 139°58'0 0.0
2016-Jun-23 18:33N 35°41' E 139°58'0 0.0
2016-Jun-23 17:33N 35°41' E 139°58'0 0.0
2016-Jun-23 16:33N 35°41' E 139°58'0 0.0
2016-Jun-23 15:32N 35°41' E 139°58'0 0.0
2016-Jun-23 14:33N 35°41' E 139°58'0 0.0
2016-Jun-23 13:33N 35°41' E 139°58'0 0.0
2016-Jun-23 12:34N 35°41' E 139°58'0 0.0
2016-Jun-23 11:33N 35°41' E 139°58'0 0.0
2016-Jun-23 10:33N 35°41' E 139°58'0 0.0
2016-Jun-23 09:33N 35°41' E 139°58'0 0.0
2016-Jun-23 08:33N 35°41' E 139°58'0 0.0
2016-Jun-23 07:33N 35°41' E 139°58'0 0.0
2016-Jun-23 05:33N 35°41' E 139°58'0 0.0
2016-Jun-23 04:33N 35°41' E 139°58'0 0.0
2016-Jun-23 03:33N 35°41' E 139°58'0 0.0
2016-Jun-23 02:33N 35°41' E 139°58'0 0.0
2016-Jun-23 01:33N 35°41' E 139°58'0 0.0
2016-Jun-23 00:33N 35°41' E 139°58'0 0.0
2016-Jun-22 23:33N 35°41' E 139°58'0 0.0
2016-Jun-22 22:33N 35°41' E 139°58'0 0.0
2016-Jun-22 21:33N 35°41' E 139°58'0 0.0
2016-Jun-22 20:33N 35°41' E 139°58'0 0.0
2016-Jun-22 19:33N 35°41' E 139°58'0 0.0
2016-Jun-22 18:33N 35°41' E 139°58'0 0.0
2016-Jun-22 17:33N 35°41' E 139°58'0 0.0
2016-Jun-22 16:34N 35°41' E 139°58'0 0.0
2016-Jun-22 15:33N 35°41' E 139°58'0 0.0
2016-Jun-22 14:33N 35°41' E 139°58'0 0.0
2016-Jun-22 13:33N 35°41' E 139°58'0 0.0
2016-Jun-22 12:33N 35°41' E 139°58'0 0.0
2016-Jun-22 11:33N 35°41' E 139°58'0 0.0
2016-Jun-22 10:33N 35°41' E 139°58'0 0.0
2016-Jun-22 09:33N 35°41' E 139°58'0 0.0
2016-Jun-22 08:33N 35°41' E 139°58'0 0.0
2016-Jun-22 07:33N 35°41' E 139°58'0 0.0
2016-Jun-22 06:33N 35°41' E 139°58'0 0.0
2016-Jun-22 05:33N 35°41' E 139°58'0 0.0
2016-Jun-22 04:33N 35°41' E 139°58'0 0.0
2016-Jun-22 03:33N 35°41' E 139°58'0 0.0
2016-Jun-22 02:32N 35°41' E 139°58'0 0.0
2016-Jun-22 01:33N 35°41' E 139°58'0 0.0
2016-Jun-22 00:33N 35°41' E 139°58'0 0.0
2016-Jun-21 23:33N 35°41' E 139°58'0 0.0
2016-Jun-21 22:33N 35°41' E 139°58'0 0.2
2016-Jun-21 21:33N 35°41' E 139°59'4 4.0
2016-Jun-21 20:33N 35°37' E 139°58'0 0.0
2016-Jun-21 19:33N 35°37' E 139°58'6 5.9
2016-Jun-21 18:33N 35°32' E 139°55'1212.0
2016-Jun-21 17:33N 35°22' E 139°45'1111.2
2016-Jun-21 16:33N 35°11' E 139°47'1110.7
2016-Jun-21 15:32N 35°02' E 139°40'1211.8
2016-Jun-21 14:33N 34°56' E 139°28'  
2016-Jun-16 08:29N 35°00' E 139°29'1212.1
2016-Jun-16 07:28N 35°07' E 139°42'1010.7
2016-Jun-16 06:31N 35°17' E 139°45'1010.1
2016-Jun-16 05:33N 35°26' E 139°45'5 5.3
2016-Jun-16 04:33N 35°32' E 139°47'0 0.0
2016-Jun-16 03:33N 35°32' E 139°47'0 0.0
2016-Jun-16 02:33N 35°32' E 139°47'0 0.0
2016-Jun-16 01:33N 35°32' E 139°47'0 0.0
2016-Jun-16 00:33N 35°32' E 139°47'0 0.0
2016-Jun-15 23:33N 35°32' E 139°47'0 0.0
2016-Jun-15 22:33N 35°32' E 139°47'0 0.0
2016-Jun-15 21:33N 35°32' E 139°47'0 0.0
2016-Jun-15 20:33N 35°32' E 139°47'0 0.0
2016-Jun-15 19:33N 35°32' E 139°47'0 0.0
2016-Jun-15 18:33N 35°32' E 139°47'0 0.0
2016-Jun-15 17:33N 35°32' E 139°47'0 0.0
2016-Jun-15 16:33N 35°32' E 139°47'0 0.0
2016-Jun-15 15:33N 35°32' E 139°47'0 0.0
2016-Jun-15 14:33N 35°32' E 139°47'0 0.0
2016-Jun-15 13:33N 35°32' E 139°47'0 0.0
2016-Jun-15 12:33N 35°32' E 139°47'0 0.0
2016-Jun-15 11:33N 35°32' E 139°47'0 0.0
2016-Jun-15 10:33N 35°32' E 139°47'0 0.0
2016-Jun-15 09:33N 35°32' E 139°47'0 0.0
2016-Jun-15 08:33N 35°32' E 139°47'0 0.0
2016-Jun-15 07:33N 35°32' E 139°47'0 0.0
2016-Jun-15 06:33N 35°32' E 139°47'0 0.0
2016-Jun-15 05:33N 35°32' E 139°47'0 0.0
2016-Jun-15 04:33N 35°32' E 139°47'1 1.2
2016-Jun-15 03:33N 35°31' E 139°48'1 1.0
2016-Jun-15 02:33N 35°31' E 139°50'0 0.0
2016-Jun-15 01:33N 35°31' E 139°50'0 0.0
2016-Jun-15 00:33N 35°31' E 139°50'3 2.5
2016-Jun-14 23:34N 35°28' E 139°48'1111.0
2016-Jun-14 22:34N 35°17' E 139°45'1010.4
2016-Jun-14 21:33N 35°07' E 139°45'  

Dump ship's entire track history